sensor_id;sensor_type;location;lat;lon;timestamp;pressure;altitude;pressure_sealevel;temperature;humidity
52855;BME280;38719;51.418;7.286;2022-10-17T00:00:56;99982.19;;;17.90;76.41
52855;BME280;38719;51.418;7.286;2022-10-17T00:03:24;99979.81;;;17.98;75.59
52855;BME280;38719;51.418;7.286;2022-10-17T00:05:53;99974.53;;;17.97;75.96
52855;BME280;38719;51.418;7.286;2022-10-17T00:08:20;99978.31;;;17.94;75.88
52855;BME280;38719;51.418;7.286;2022-10-17T00:10:55;99970.50;;;18.02;75.33
52855;BME280;38719;51.418;7.286;2022-10-17T00:13:23;99968.31;;;18.08;75.69
52855;BME280;38719;51.418;7.286;2022-10-17T00:15:51;99976.28;;;18.09;75.37
52855;BME280;38719;51.418;7.286;2022-10-17T00:18:19;99977.91;;;18.12;75.47
52855;BME280;38719;51.418;7.286;2022-10-17T00:20:46;99980.94;;;18.07;75.57
52855;BME280;38719;51.418;7.286;2022-10-17T00:23:15;99975.78;;;18.04;75.44
52855;BME280;38719;51.418;7.286;2022-10-17T00:25:43;99977.63;;;18.03;75.74
52855;BME280;38719;51.418;7.286;2022-10-17T00:28:11;99976.41;;;18.08;75.43
52855;BME280;38719;51.418;7.286;2022-10-17T00:30:38;99973.59;;;18.09;75.29
52855;BME280;38719;51.418;7.286;2022-10-17T00:33:06;99971.19;;;17.93;75.76
52855;BME280;38719;51.418;7.286;2022-10-17T00:35:33;99966.22;;;18.00;75.93
52855;BME280;38719;51.418;7.286;2022-10-17T00:38:01;99966.97;;;18.02;75.81
52855;BME280;38719;51.418;7.286;2022-10-17T00:40:30;99966.56;;;17.95;76.12
52855;BME280;38719;51.418;7.286;2022-10-17T00:42:57;99963.47;;;17.88;76.06
52855;BME280;38719;51.418;7.286;2022-10-17T00:45:28;99965.41;;;17.86;76.34
52855;BME280;38719;51.418;7.286;2022-10-17T00:47:58;99964.94;;;17.93;75.74
52855;BME280;38719;51.418;7.286;2022-10-17T00:50:27;99965.38;;;17.99;75.72
52855;BME280;38719;51.418;7.286;2022-10-17T00:52:58;99967.59;;;18.06;75.33
52855;BME280;38719;51.418;7.286;2022-10-17T00:55:32;99962.56;;;18.01;75.70
52855;BME280;38719;51.418;7.286;2022-10-17T00:58:02;99963.91;;;18.07;75.22
52855;BME280;38719;51.418;7.286;2022-10-17T01:00:31;99961.13;;;18.08;75.10
52855;BME280;38719;51.418;7.286;2022-10-17T01:02:59;99958.31;;;18.10;75.24
52855;BME280;38719;51.418;7.286;2022-10-17T01:05:27;99960.72;;;18.01;75.74
52855;BME280;38719;51.418;7.286;2022-10-17T01:07:55;99958.66;;;18.05;75.49
52855;BME280;38719;51.418;7.286;2022-10-17T01:10:28;99962.72;;;18.11;75.40
52855;BME280;38719;51.418;7.286;2022-10-17T01:13:05;99954.22;;;18.04;75.63
52855;BME280;38719;51.418;7.286;2022-10-17T01:15:42;99958.06;;;18.13;75.29
52855;BME280;38719;51.418;7.286;2022-10-17T01:18:19;99958.94;;;18.13;75.30
52855;BME280;38719;51.418;7.286;2022-10-17T01:21:02;99954.84;;;18.08;75.07
52855;BME280;38719;51.418;7.286;2022-10-17T01:23:53;99962.22;;;18.06;75.32
52855;BME280;38719;51.418;7.286;2022-10-17T01:26:36;99956.28;;;18.00;75.53
52855;BME280;38719;51.418;7.286;2022-10-17T01:29:20;99955.31;;;18.01;75.38
52855;BME280;38719;51.418;7.286;2022-10-17T01:31:56;99954.13;;;18.06;75.61
52855;BME280;38719;51.418;7.286;2022-10-17T01:34:30;99963.53;;;18.00;75.74
52855;BME280;38719;51.418;7.286;2022-10-17T01:37:02;99959.00;;;18.00;75.74
52855;BME280;38719;51.418;7.286;2022-10-17T01:39:40;99956.81;;;18.06;75.33
52855;BME280;38719;51.418;7.286;2022-10-17T01:42:15;99957.69;;;18.06;75.36
52855;BME280;38719;51.418;7.286;2022-10-17T01:44:48;99946.28;;;18.02;74.79
52855;BME280;38719;51.418;7.286;2022-10-17T01:47:22;99944.16;;;17.95;75.41
52855;BME280;38719;51.418;7.286;2022-10-17T01:49:53;99947.38;;;18.00;75.17
52855;BME280;38719;51.418;7.286;2022-10-17T01:52:25;99942.34;;;18.07;75.15
52855;BME280;38719;51.418;7.286;2022-10-17T01:54:55;99938.47;;;18.11;75.08
52855;BME280;38719;51.418;7.286;2022-10-17T01:57:29;99933.94;;;18.11;74.96
52855;BME280;38719;51.418;7.286;2022-10-17T01:59:58;99936.25;;;18.04;74.96
52855;BME280;38719;51.418;7.286;2022-10-17T02:02:28;99937.81;;;17.96;75.50
52855;BME280;38719;51.418;7.286;2022-10-17T02:04:56;99932.50;;;17.94;75.22
52855;BME280;38719;51.418;7.286;2022-10-17T02:07:24;99924.66;;;17.91;75.84
52855;BME280;38719;51.418;7.286;2022-10-17T02:09:52;99930.38;;;17.86;75.75
52855;BME280;38719;51.418;7.286;2022-10-17T02:12:30;99930.16;;;17.89;75.77
52855;BME280;38719;51.418;7.286;2022-10-17T02:15:26;99930.78;;;17.93;75.62
52855;BME280;38719;51.418;7.286;2022-10-17T02:18:07;99928.84;;;17.95;75.34
52855;BME280;38719;51.418;7.286;2022-10-17T02:20:44;99924.53;;;17.93;75.51
52855;BME280;38719;51.418;7.286;2022-10-17T02:23:19;99922.72;;;17.93;75.60
52855;BME280;38719;51.418;7.286;2022-10-17T02:25:54;99919.03;;;17.94;75.33
52855;BME280;38719;51.418;7.286;2022-10-17T02:28:28;99922.38;;;17.98;75.33
52855;BME280;38719;51.418;7.286;2022-10-17T02:31:01;99918.94;;;17.96;75.00
52855;BME280;38719;51.418;7.286;2022-10-17T02:33:36;99921.53;;;17.97;74.83
52855;BME280;38719;51.418;7.286;2022-10-17T02:36:09;99919.56;;;17.99;74.91
52855;BME280;38719;51.418;7.286;2022-10-17T02:38:39;99920.31;;;18.01;74.73
52855;BME280;38719;51.418;7.286;2022-10-17T02:41:11;99923.63;;;18.05;74.77
52855;BME280;38719;51.418;7.286;2022-10-17T02:43:42;99915.06;;;18.11;74.38
52855;BME280;38719;51.418;7.286;2022-10-17T02:46:12;99908.56;;;18.14;74.21
52855;BME280;38719;51.418;7.286;2022-10-17T02:48:49;99909.06;;;18.19;73.92
52855;BME280;38719;51.418;7.286;2022-10-17T02:51:22;99920.25;;;18.26;73.60
52855;BME280;38719;51.418;7.286;2022-10-17T02:53:58;99914.50;;;18.30;73.54
52855;BME280;38719;51.418;7.286;2022-10-17T02:56:31;99920.84;;;18.18;73.96
52855;BME280;38719;51.418;7.286;2022-10-17T02:59:02;99926.97;;;18.20;73.78
52855;BME280;38719;51.418;7.286;2022-10-17T03:01:32;99926.75;;;18.23;73.63
52855;BME280;38719;51.418;7.286;2022-10-17T03:04:06;99928.47;;;18.24;74.09
52855;BME280;38719;51.418;7.286;2022-10-17T03:06:35;99937.75;;;18.20;73.81
52855;BME280;38719;51.418;7.286;2022-10-17T03:09:03;99921.69;;;18.18;73.61
52855;BME280;38719;51.418;7.286;2022-10-17T03:11:30;99918.16;;;18.18;73.93
52855;BME280;38719;51.418;7.286;2022-10-17T03:13:58;99929.31;;;18.25;73.52
52855;BME280;38719;51.418;7.286;2022-10-17T03:16:26;99927.22;;;18.17;73.88
52855;BME280;38719;51.418;7.286;2022-10-17T03:18:53;99914.72;;;18.16;73.68
52855;BME280;38719;51.418;7.286;2022-10-17T03:21:22;99926.47;;;18.15;73.74
52855;BME280;38719;51.418;7.286;2022-10-17T03:23:50;99916.41;;;18.06;74.15
52855;BME280;38719;51.418;7.286;2022-10-17T03:26:19;99919.69;;;18.09;73.71
52855;BME280;38719;51.418;7.286;2022-10-17T03:28:46;99932.09;;;18.12;73.76
52855;BME280;38719;51.418;7.286;2022-10-17T03:31:19;99932.09;;;18.12;73.98
52855;BME280;38719;51.418;7.286;2022-10-17T03:33:47;99926.94;;;18.09;73.95
52855;BME280;38719;51.418;7.286;2022-10-17T03:36:16;99929.91;;;18.17;73.34
52855;BME280;38719;51.418;7.286;2022-10-17T03:38:45;99931.81;;;18.03;74.01
52855;BME280;38719;51.418;7.286;2022-10-17T03:41:13;99937.09;;;18.05;73.92
52855;BME280;38719;51.418;7.286;2022-10-17T03:43:41;99933.66;;;18.03;74.08
52855;BME280;38719;51.418;7.286;2022-10-17T03:46:08;99933.78;;;18.01;74.05
52855;BME280;38719;51.418;7.286;2022-10-17T03:48:36;99935.75;;;17.99;74.02
52855;BME280;38719;51.418;7.286;2022-10-17T03:51:05;99939.16;;;18.01;73.76
52855;BME280;38719;51.418;7.286;2022-10-17T03:53:33;99937.22;;;18.03;73.97
52855;BME280;38719;51.418;7.286;2022-10-17T03:56:11;99942.88;;;18.12;73.48
52855;BME280;38719;51.418;7.286;2022-10-17T03:58:39;99941.66;;;18.16;73.27
52855;BME280;38719;51.418;7.286;2022-10-17T04:01:08;99941.19;;;18.22;73.07
52855;BME280;38719;51.418;7.286;2022-10-17T04:03:36;99935.88;;;18.09;73.09
52855;BME280;38719;51.418;7.286;2022-10-17T04:06:05;99943.59;;;18.14;73.13
52855;BME280;38719;51.418;7.286;2022-10-17T04:08:33;99956.09;;;18.15;73.15
52855;BME280;38719;51.418;7.286;2022-10-17T04:11:03;99946.09;;;18.17;73.13
52855;BME280;38719;51.418;7.286;2022-10-17T04:13:33;99946.31;;;18.14;73.15
52855;BME280;38719;51.418;7.286;2022-10-17T04:16:04;99958.06;;;18.13;73.19
52855;BME280;38719;51.418;7.286;2022-10-17T04:18:32;99955.59;;;18.10;72.99
52855;BME280;38719;51.418;7.286;2022-10-17T04:21:00;99957.31;;;18.11;73.31
52855;BME280;38719;51.418;7.286;2022-10-17T04:23:28;99964.94;;;18.17;72.96
52855;BME280;38719;51.418;7.286;2022-10-17T04:25:55;99960.75;;;18.13;72.95
52855;BME280;38719;51.418;7.286;2022-10-17T04:28:24;99960.75;;;18.13;73.05
52855;BME280;38719;51.418;7.286;2022-10-17T04:30:57;99958.06;;;18.13;73.01
52855;BME280;38719;51.418;7.286;2022-10-17T04:33:24;99955.31;;;18.01;73.62
52855;BME280;38719;51.418;7.286;2022-10-17T04:35:56;99959.00;;;18.00;73.43
52855;BME280;38719;51.418;7.286;2022-10-17T04:38:24;99956.28;;;18.00;73.06
52855;BME280;38719;51.418;7.286;2022-10-17T04:40:56;99963.06;;;18.06;73.45
52855;BME280;38719;51.418;7.286;2022-10-17T04:43:23;99959.41;;;18.07;73.16
52855;BME280;38719;51.418;7.286;2022-10-17T04:45:51;99966.09;;;18.01;73.30
52855;BME280;38719;51.418;7.286;2022-10-17T04:48:20;99966.59;;;18.07;73.24
52855;BME280;38719;51.418;7.286;2022-10-17T04:50:54;99958.53;;;18.07;73.22
52855;BME280;38719;51.418;7.286;2022-10-17T04:53:22;99959.63;;;18.04;73.27
52855;BME280;38719;51.418;7.286;2022-10-17T04:55:53;99965.00;;;18.04;73.33
52855;BME280;38719;51.418;7.286;2022-10-17T04:58:21;99957.81;;;18.04;73.01
52855;BME280;38719;51.418;7.286;2022-10-17T05:00:48;99963.28;;;18.03;73.20
52855;BME280;38719;51.418;7.286;2022-10-17T05:03:16;99962.91;;;17.96;73.17
52855;BME280;38719;51.418;7.286;2022-10-17T05:05:45;99962.91;;;17.96;73.27
52855;BME280;38719;51.418;7.286;2022-10-17T05:08:12;99975.16;;;18.00;72.99
52855;BME280;38719;51.418;7.286;2022-10-17T05:10:42;99966.78;;;17.92;73.37
52855;BME280;38719;51.418;7.286;2022-10-17T05:13:11;99970.97;;;17.96;73.34
52855;BME280;38719;51.418;7.286;2022-10-17T05:15:39;99970.00;;;17.97;73.41
52855;BME280;38719;51.418;7.286;2022-10-17T05:18:06;99969.25;;;17.95;73.32
52855;BME280;38719;51.418;7.286;2022-10-17T05:20:34;99970.44;;;17.91;73.34
52855;BME280;38719;51.418;7.286;2022-10-17T05:23:03;99982.94;;;17.92;73.30
52855;BME280;38719;51.418;7.286;2022-10-17T05:25:31;99978.22;;;17.96;73.42
52855;BME280;38719;51.418;7.286;2022-10-17T05:27:58;99975.28;;;17.99;73.36
52855;BME280;38719;51.418;7.286;2022-10-17T05:30:26;99979.06;;;17.96;72.78
52855;BME280;38719;51.418;7.286;2022-10-17T05:32:54;99979.06;;;17.96;72.91
52855;BME280;38719;51.418;7.286;2022-10-17T05:35:22;99975.84;;;17.91;72.90
52855;BME280;38719;51.418;7.286;2022-10-17T05:37:49;99978.31;;;17.94;72.78
52855;BME280;38719;51.418;7.286;2022-10-17T05:40:18;99976.59;;;17.93;73.00
52855;BME280;38719;51.418;7.286;2022-10-17T05:42:47;99979.19;;;17.95;73.10
52855;BME280;38719;51.418;7.286;2022-10-17T05:45:15;99981.63;;;17.98;73.12
52855;BME280;38719;51.418;7.286;2022-10-17T05:47:42;99993.66;;;18.05;72.44
52855;BME280;38719;51.418;7.286;2022-10-17T05:50:10;99986.47;;;18.06;72.69
52855;BME280;38719;51.418;7.286;2022-10-17T05:52:37;99984.63;;;18.06;72.50
52855;BME280;38719;51.418;7.286;2022-10-17T05:55:08;99994.75;;;18.02;72.49
52855;BME280;38719;51.418;7.286;2022-10-17T05:57:37;99995.41;;;18.06;72.20
52855;BME280;38719;51.418;7.286;2022-10-17T06:00:05;99997.34;;;18.04;72.75
52855;BME280;38719;51.418;7.286;2022-10-17T06:02:33;100007.03;;;18.07;72.34
52855;BME280;38719;51.418;7.286;2022-10-17T06:05:00;100015.09;;;17.82;72.83
52855;BME280;38719;51.418;7.286;2022-10-17T06:07:28;100007.16;;;18.05;72.24
52855;BME280;38719;51.418;7.286;2022-10-17T06:09:55;99993.03;;;18.01;72.39
52855;BME280;38719;51.418;7.286;2022-10-17T06:12:24;99996.88;;;18.10;72.23
52855;BME280;38719;51.418;7.286;2022-10-17T06:14:53;100001.91;;;18.15;71.61
52855;BME280;38719;51.418;7.286;2022-10-17T06:17:20;99994.09;;;18.12;72.15
52855;BME280;38719;51.418;7.286;2022-10-17T06:19:48;99989.66;;;18.11;72.03
52855;BME280;38719;51.418;7.286;2022-10-17T06:22:16;99993.84;;;18.15;72.22
52855;BME280;38719;51.418;7.286;2022-10-17T06:24:43;99993.09;;;18.13;71.77
52855;BME280;38719;51.418;7.286;2022-10-17T06:27:11;100006.47;;;18.14;71.80
52855;BME280;38719;51.418;7.286;2022-10-17T06:29:39;100005.59;;;18.14;71.97
52855;BME280;38719;51.418;7.286;2022-10-17T06:32:07;100013.44;;;18.17;71.44
52855;BME280;38719;51.418;7.286;2022-10-17T06:34:40;100015.50;;;18.13;72.01
52855;BME280;38719;51.418;7.286;2022-10-17T06:37:08;100023.97;;;18.20;71.25
52855;BME280;38719;51.418;7.286;2022-10-17T06:39:35;100032.81;;;18.22;71.73
52855;BME280;38719;51.418;7.286;2022-10-17T06:42:03;100046.69;;;18.29;70.88
52855;BME280;38719;51.418;7.286;2022-10-17T06:44:30;100050.13;;;18.31;70.87
52855;BME280;38719;51.418;7.286;2022-10-17T06:46:58;100060.31;;;18.39;70.60
52855;BME280;38719;51.418;7.286;2022-10-17T06:49:28;100073.78;;;18.39;70.49
52855;BME280;38719;51.418;7.286;2022-10-17T06:51:55;100077.38;;;18.39;70.57
52855;BME280;38719;51.418;7.286;2022-10-17T06:54:23;100082.28;;;18.45;70.54
52855;BME280;38719;51.418;7.286;2022-10-17T06:56:50;100086.97;;;18.55;70.20
52855;BME280;38719;51.418;7.286;2022-10-17T06:59:18;100093.28;;;18.66;69.81
52855;BME280;38719;51.418;7.286;2022-10-17T07:01:45;100084.09;;;18.69;69.73
52855;BME280;38719;51.418;7.286;2022-10-17T07:04:13;100089.28;;;18.83;69.85
52855;BME280;38719;51.418;7.286;2022-10-17T07:06:42;100093.00;;;18.94;68.87
52855;BME280;38719;51.418;7.286;2022-10-17T07:09:09;100094.09;;;18.91;68.76
52855;BME280;38719;51.418;7.286;2022-10-17T07:11:37;100091.41;;;19.03;68.63
52855;BME280;38719;51.418;7.286;2022-10-17T07:14:05;100098.28;;;18.95;69.27
52855;BME280;38719;51.418;7.286;2022-10-17T07:16:33;100099.75;;;18.99;68.90
52855;BME280;38719;51.418;7.286;2022-10-17T07:19:01;100100.97;;;18.95;68.77
52855;BME280;38719;51.418;7.286;2022-10-17T07:21:28;100103.94;;;18.92;69.24
52855;BME280;38719;51.418;7.286;2022-10-17T07:24:04;100102.91;;;18.93;69.29
52855;BME280;38719;51.418;7.286;2022-10-17T07:26:32;100099.75;;;18.99;69.07
52855;BME280;38719;51.418;7.286;2022-10-17T07:29:00;100110.31;;;19.14;68.46
52855;BME280;38719;51.418;7.286;2022-10-17T07:31:28;100101.97;;;19.06;68.72
52855;BME280;38719;51.418;7.286;2022-10-17T07:33:55;100097.56;;;19.05;68.53
52855;BME280;38719;51.418;7.286;2022-10-17T07:36:25;100098.28;;;18.95;68.82
52855;BME280;38719;51.418;7.286;2022-10-17T07:38:53;100101.31;;;18.91;69.14
52855;BME280;38719;51.418;7.286;2022-10-17T07:41:21;100100.00;;;18.96;68.93
52855;BME280;38719;51.418;7.286;2022-10-17T07:43:49;100100.66;;;18.87;68.97
52855;BME280;38719;51.418;7.286;2022-10-17T07:46:17;100102.56;;;18.98;69.12
52855;BME280;38719;51.418;7.286;2022-10-17T07:48:44;100109.22;;;19.05;68.55
52855;BME280;38719;51.418;7.286;2022-10-17T07:51:12;100099.16;;;18.96;68.64
52855;BME280;38719;51.418;7.286;2022-10-17T07:53:39;100095.97;;;19.02;68.48
52855;BME280;38719;51.418;7.286;2022-10-17T07:56:13;100099.25;;;19.06;68.51
52855;BME280;38719;51.418;7.286;2022-10-17T07:58:42;100104.44;;;19.09;68.25
52855;BME280;38719;51.418;7.286;2022-10-17T08:01:10;100120.28;;;19.13;67.87
52855;BME280;38719;51.418;7.286;2022-10-17T08:03:42;100107.25;;;19.07;68.03
52855;BME280;38719;51.418;7.286;2022-10-17T08:06:10;100111.28;;;19.01;68.19
52855;BME280;38719;51.418;7.286;2022-10-17T08:08:38;100109.56;;;19.00;68.38
52855;BME280;38719;51.418;7.286;2022-10-17T08:11:08;100103.69;;;19.07;68.44
52855;BME280;38719;51.418;7.286;2022-10-17T08:13:36;100101.47;;;19.12;68.17
52855;BME280;38719;51.418;7.286;2022-10-17T08:16:08;100105.19;;;19.11;68.30
52855;BME280;38719;51.418;7.286;2022-10-17T08:18:38;100093.91;;;19.17;68.11
52855;BME280;38719;51.418;7.286;2022-10-17T08:21:06;100091.44;;;19.14;68.13
52855;BME280;38719;51.418;7.286;2022-10-17T08:23:35;100097.94;;;19.23;68.00
52855;BME280;38719;51.418;7.286;2022-10-17T08:26:04;100090.59;;;19.25;67.88
52855;BME280;38719;51.418;7.286;2022-10-17T08:28:34;100096.97;;;19.24;67.59
52855;BME280;38719;51.418;7.286;2022-10-17T08:31:03;100100.63;;;19.23;67.81
52855;BME280;38719;51.418;7.286;2022-10-17T08:33:32;100104.56;;;19.30;67.65
52855;BME280;38719;51.418;7.286;2022-10-17T08:36:01;100116.97;;;19.32;67.65
52855;BME280;38719;51.418;7.286;2022-10-17T08:38:29;100121.25;;;19.35;67.77
52855;BME280;38719;51.418;7.286;2022-10-17T08:41:03;100121.13;;;19.37;67.53
52855;BME280;38719;51.418;7.286;2022-10-17T08:43:39;100112.19;;;19.36;67.62
52855;BME280;38719;51.418;7.286;2022-10-17T08:46:09;100121.53;;;19.43;67.74
52855;BME280;38719;51.418;7.286;2022-10-17T08:48:41;100118.19;;;19.51;67.38
52855;BME280;38719;51.418;7.286;2022-10-17T08:51:14;100128.88;;;19.53;67.14
52855;BME280;38719;51.418;7.286;2022-10-17T08:53:47;100121.38;;;19.56;66.94
52855;BME280;38719;51.418;7.286;2022-10-17T08:56:18;100152.34;;;19.63;66.98
52855;BME280;38719;51.418;7.286;2022-10-17T08:59:10;100147.19;;;19.72;66.59
52855;BME280;38719;51.418;7.286;2022-10-17T09:01:43;100152.47;;;19.73;66.37
52855;BME280;38719;51.418;7.286;2022-10-17T09:04:44;100141.53;;;19.75;66.78
52855;BME280;38719;51.418;7.286;2022-10-17T09:07:21;100128.06;;;19.86;66.10
52855;BME280;38719;51.418;7.286;2022-10-17T09:09:59;100140.81;;;19.95;65.94
52855;BME280;38719;51.418;7.286;2022-10-17T09:12:37;100156.38;;;20.03;66.16
52855;BME280;38719;51.418;7.286;2022-10-17T09:15:27;100147.41;;;20.14;65.91
52855;BME280;38719;51.418;7.286;2022-10-17T09:17:59;100154.03;;;20.21;64.83
52855;BME280;38719;51.418;7.286;2022-10-17T09:20:33;100158.09;;;20.16;65.14
52855;BME280;38719;51.418;7.286;2022-10-17T09:23:08;100160.19;;;20.12;65.48
52855;BME280;38719;51.418;7.286;2022-10-17T09:25:40;100159.47;;;20.10;65.74
52855;BME280;38719;51.418;7.286;2022-10-17T09:28:13;100162.00;;;20.23;65.41
52855;BME280;38719;51.418;7.286;2022-10-17T09:30:45;100155.34;;;20.38;64.71
52855;BME280;38719;51.418;7.286;2022-10-17T09:33:15;100168.13;;;20.36;65.16
52855;BME280;38719;51.418;7.286;2022-10-17T09:36:10;100161.22;;;20.43;65.00
52855;BME280;38719;51.418;7.286;2022-10-17T09:38:41;100173.97;;;20.53;64.50
52855;BME280;38719;51.418;7.286;2022-10-17T09:41:19;100175.22;;;20.49;64.56
52855;BME280;38719;51.418;7.286;2022-10-17T09:44:13;100186.88;;;20.49;64.53
52855;BME280;38719;51.418;7.286;2022-10-17T09:46:58;100200.81;;;20.44;64.76
52855;BME280;38719;51.418;7.286;2022-10-17T09:49:31;100206.78;;;20.59;64.45
52855;BME280;38719;51.418;7.286;2022-10-17T09:52:02;100192.84;;;20.64;64.12
52855;BME280;38719;51.418;7.286;2022-10-17T09:54:38;100190.66;;;20.69;64.14
52855;BME280;38719;51.418;7.286;2022-10-17T09:57:08;100202.59;;;20.67;63.61
52855;BME280;38719;51.418;7.286;2022-10-17T09:59:38;100210.72;;;20.67;63.85
52855;BME280;38719;51.418;7.286;2022-10-17T10:02:08;100203.69;;;20.64;63.90
52855;BME280;38719;51.418;7.286;2022-10-17T10:04:35;100210.34;;;20.60;64.11
52855;BME280;38719;51.418;7.286;2022-10-17T10:07:28;100207.03;;;20.56;64.40
52855;BME280;38719;51.418;7.286;2022-10-17T10:09:57;100229.41;;;20.58;64.13
52855;BME280;38719;51.418;7.286;2022-10-17T10:12:26;100214.78;;;20.61;63.79
52855;BME280;38719;51.418;7.286;2022-10-17T10:14:55;100217.84;;;20.56;63.89
52855;BME280;38719;51.418;7.286;2022-10-17T10:17:29;100224.97;;;20.57;63.89
52855;BME280;38719;51.418;7.286;2022-10-17T10:20:01;100235.56;;;20.49;64.38
52855;BME280;38719;51.418;7.286;2022-10-17T10:22:30;100230.66;;;20.54;64.35
52855;BME280;38719;51.418;7.286;2022-10-17T10:25:12;100243.44;;;20.52;63.96
52855;BME280;38719;51.418;7.286;2022-10-17T10:27:42;100243.81;;;20.48;64.11
52855;BME280;38719;51.418;7.286;2022-10-17T10:30:16;100241.47;;;20.54;64.41
52855;BME280;38719;51.418;7.286;2022-10-17T10:32:46;100248.09;;;20.61;64.27
52855;BME280;38719;51.418;7.286;2022-10-17T10:35:20;100254.25;;;20.52;64.27
52855;BME280;38719;51.418;7.286;2022-10-17T10:37:50;100253.91;;;20.57;63.94
52855;BME280;38719;51.418;7.286;2022-10-17T10:40:22;100258.78;;;20.63;64.32
52855;BME280;38719;51.418;7.286;2022-10-17T10:42:52;100268.03;;;20.60;64.12
52855;BME280;38719;51.418;7.286;2022-10-17T10:45:22;100275.03;;;20.52;64.23
52855;BME280;38719;51.418;7.286;2022-10-17T10:48:18;100266.53;;;20.56;64.34
52855;BME280;38719;51.418;7.286;2022-10-17T10:50:49;100273.44;;;20.60;64.27
52855;BME280;38719;51.418;7.286;2022-10-17T10:53:30;100274.16;;;20.74;64.23
52855;BME280;38719;51.418;7.286;2022-10-17T10:56:03;100269.97;;;20.81;63.60
52855;BME280;38719;51.418;7.286;2022-10-17T10:58:38;100276.06;;;20.94;63.53
52855;BME280;38719;51.418;7.286;2022-10-17T11:01:14;100279.25;;;21.00;63.36
52855;BME280;38719;51.418;7.286;2022-10-17T11:03:51;100278.72;;;21.06;63.28
52855;BME280;38719;51.418;7.286;2022-10-17T11:06:22;100285.25;;;21.03;63.07
52855;BME280;38719;51.418;7.286;2022-10-17T11:09:04;100296.22;;;21.02;63.05
52855;BME280;38719;51.418;7.286;2022-10-17T11:11:39;100310.50;;;21.04;63.10
52855;BME280;38719;51.418;7.286;2022-10-17T11:14:12;100319.84;;;21.00;63.33
52855;BME280;38719;51.418;7.286;2022-10-17T11:16:46;100309.91;;;20.89;63.39
52855;BME280;38719;51.418;7.286;2022-10-17T11:19:23;100318.63;;;20.92;63.11
52855;BME280;38719;51.418;7.286;2022-10-17T11:22:01;100318.63;;;21.04;63.02
52855;BME280;38719;51.418;7.286;2022-10-17T11:24:37;100322.50;;;21.11;62.89
52855;BME280;38719;51.418;7.286;2022-10-17T11:27:06;100333.63;;;21.08;63.14
52855;BME280;38719;51.418;7.286;2022-10-17T11:29:36;100334.88;;;21.04;63.27
52855;BME280;38719;51.418;7.286;2022-10-17T11:32:07;100329.94;;;21.09;63.27
52855;BME280;38719;51.418;7.286;2022-10-17T11:34:40;100329.78;;;21.10;63.06
52855;BME280;38719;51.418;7.286;2022-10-17T11:37:14;100321.06;;;21.07;63.32
52855;BME280;38719;51.418;7.286;2022-10-17T11:39:49;100316.72;;;21.16;63.20
52855;BME280;38719;51.418;7.286;2022-10-17T11:42:23;100311.75;;;21.32;62.88
52855;BME280;38719;51.418;7.286;2022-10-17T11:44:56;100321.25;;;21.26;62.74
52855;BME280;38719;51.418;7.286;2022-10-17T11:47:33;100315.09;;;21.24;63.02
52855;BME280;38719;51.418;7.286;2022-10-17T11:50:11;100307.69;;;21.26;63.04
52855;BME280;38719;51.418;7.286;2022-10-17T11:53:07;100297.84;;;21.25;62.28
52855;BME280;38719;51.418;7.286;2022-10-17T11:55:37;100292.66;;;21.34;62.30
52855;BME280;38719;51.418;7.286;2022-10-17T11:58:14;100301.53;;;21.24;62.56
52855;BME280;38719;51.418;7.286;2022-10-17T12:00:53;100304.69;;;21.41;62.27
52855;BME280;38719;51.418;7.286;2022-10-17T12:03:33;100300.19;;;21.30;62.57
52855;BME280;38719;51.418;7.286;2022-10-17T12:06:10;100305.84;;;21.27;62.71
52855;BME280;38719;51.418;7.286;2022-10-17T12:08:45;100313.34;;;21.23;63.00
52855;BME280;38719;51.418;7.286;2022-10-17T12:11:26;100316.16;;;21.33;62.48
52855;BME280;38719;51.418;7.286;2022-10-17T12:13:55;100327.88;;;21.34;62.50
52855;BME280;38719;51.418;7.286;2022-10-17T12:16:45;100316.38;;;21.41;62.46
52855;BME280;38719;51.418;7.286;2022-10-17T12:22:19;100324.94;;;21.25;62.70
52855;BME280;38719;51.418;7.286;2022-10-17T12:24:58;100323.22;;;21.24;62.66
52855;BME280;38719;51.418;7.286;2022-10-17T12:27:42;100328.28;;;21.18;63.05
52855;BME280;38719;51.418;7.286;2022-10-17T12:30:17;100331.81;;;21.30;63.05
52855;BME280;38719;51.418;7.286;2022-10-17T12:32:53;100330.22;;;21.27;63.39
52855;BME280;38719;51.418;7.286;2022-10-17T12:35:33;100335.38;;;21.30;63.45
52855;BME280;38719;51.418;7.286;2022-10-17T12:38:25;100331.81;;;21.30;63.63
52855;BME280;38719;51.418;7.286;2022-10-17T12:41:00;100333.06;;;21.25;63.43
52855;BME280;38719;51.418;7.286;2022-10-17T12:46:48;100331.84;;;21.18;64.30
52855;BME280;38719;51.418;7.286;2022-10-17T12:49:37;100336.66;;;21.26;64.15
52855;BME280;38719;51.418;7.286;2022-10-17T12:52:24;100331.59;;;21.21;64.11
52855;BME280;38719;51.418;7.286;2022-10-17T12:55:08;100341.22;;;21.14;64.68
52855;BME280;38719;51.418;7.286;2022-10-17T12:57:43;100340.75;;;21.09;64.25
52855;BME280;38719;51.418;7.286;2022-10-17T13:00:21;100340.53;;;21.01;64.68
52855;BME280;38719;51.418;7.286;2022-10-17T13:02:52;100345.19;;;20.99;64.77
52855;BME280;38719;51.418;7.286;2022-10-17T13:05:26;100338.97;;;20.87;65.33
52855;BME280;38719;51.418;7.286;2022-10-17T13:07:55;100339.78;;;20.99;65.38
52855;BME280;38719;51.418;7.286;2022-10-17T13:10:25;100356.94;;;20.88;65.72
52855;BME280;38719;51.418;7.286;2022-10-17T13:13:03;100366.03;;;20.87;65.38
52855;BME280;38719;51.418;7.286;2022-10-17T13:15:33;100365.06;;;20.88;66.10
52855;BME280;38719;51.418;7.286;2022-10-17T13:18:03;100367.38;;;20.81;65.95
52855;BME280;38719;51.418;7.286;2022-10-17T13:20:31;100373.06;;;20.78;65.82
52855;BME280;38719;51.418;7.286;2022-10-17T13:22:59;100376.84;;;20.87;66.28
52855;BME280;38719;51.418;7.286;2022-10-17T13:25:27;100380.88;;;20.92;65.76